sensor_id;sensor_type;location;lat;lon;timestamp;P1;durP1;ratioP1;P2;durP2;ratioP2
16472;SDS011;8347;52.486;13.432;2022-08-06T06:48:53;1.95;;;1.00;;
16472;SDS011;8347;52.486;13.432;2022-08-06T06:51:43;2.33;;;0.88;;
16472;SDS011;8347;52.486;13.432;2022-08-06T06:54:35;1.88;;;0.70;;
16472;SDS011;8347;52.486;13.432;2022-08-06T06:57:26;3.33;;;1.23;;
16472;SDS011;8347;52.486;13.432;2022-08-06T07:00:15;1.58;;;0.93;;
16472;SDS011;8347;52.486;13.432;2022-08-06T07:03:03;1.10;;;0.73;;
16472;SDS011;8347;52.486;13.432;2022-08-06T07:05:51;1.23;;;0.60;;
16472;SDS011;8347;52.486;13.432;2022-08-06T07:08:40;1.30;;;0.77;;
16472;SDS011;8347;52.486;13.432;2022-08-06T07:11:30;2.72;;;0.95;;
16472;SDS011;8347;52.486;13.432;2022-08-06T07:14:18;1.70;;;0.85;;
16472;SDS011;8347;52.486;13.432;2022-08-06T07:17:06;4.13;;;1.10;;
16472;SDS011;8347;52.486;13.432;2022-08-06T07:19:54;1.52;;;0.80;;
16472;SDS011;8347;52.486;13.432;2022-08-06T07:22:42;1.92;;;0.90;;
16472;SDS011;8347;52.486;13.432;2022-08-06T07:25:29;2.58;;;0.82;;
16472;SDS011;8347;52.486;13.432;2022-08-06T07:28:17;2.40;;;0.80;;
16472;SDS011;8347;52.486;13.432;2022-08-06T07:31:05;2.33;;;1.15;;
16472;SDS011;8347;52.486;13.432;2022-08-06T07:33:55;1.52;;;1.05;;
16472;SDS011;8347;52.486;13.432;2022-08-06T07:36:46;2.95;;;1.02;;
16472;SDS011;8347;52.486;13.432;2022-08-06T07:39:37;2.75;;;1.05;;
16472;SDS011;8347;52.486;13.432;2022-08-06T07:42:24;1.92;;;1.08;;
16472;SDS011;8347;52.486;13.432;2022-08-06T07:45:12;4.85;;;1.15;;
16472;SDS011;8347;52.486;13.432;2022-08-06T07:48:00;5.15;;;1.10;;
16472;SDS011;8347;52.486;13.432;2022-08-06T07:51:01;2.90;;;1.33;;
16472;SDS011;8347;52.486;13.432;2022-08-06T07:53:48;3.88;;;0.85;;
16472;SDS011;8347;52.486;13.432;2022-08-06T07:56:37;3.88;;;1.00;;
16472;SDS011;8347;52.486;13.432;2022-08-06T07:59:24;5.18;;;2.00;;
16472;SDS011;8347;52.486;13.432;2022-08-06T08:02:11;1.73;;;1.00;;
16472;SDS011;8347;52.486;13.432;2022-08-06T08:04:58;3.42;;;1.38;;
16472;SDS011;8347;52.486;13.432;2022-08-06T08:08:04;1.67;;;0.70;;
16472;SDS011;8347;52.486;13.432;2022-08-06T08:10:54;4.20;;;1.15;;
16472;SDS011;8347;52.486;13.432;2022-08-06T08:13:41;3.72;;;1.10;;
16472;SDS011;8347;52.486;13.432;2022-08-06T08:16:28;1.30;;;1.00;;
16472;SDS011;8347;52.486;13.432;2022-08-06T08:22:08;1.65;;;0.90;;
16472;SDS011;8347;52.486;13.432;2022-08-06T08:24:55;4.20;;;0.70;;
16472;SDS011;8347;52.486;13.432;2022-08-06T08:27:42;1.45;;;0.82;;
16472;SDS011;8347;52.486;13.432;2022-08-06T08:30:29;3.55;;;1.02;;
16472;SDS011;8347;52.486;13.432;2022-08-06T08:33:17;1.42;;;1.00;;
16472;SDS011;8347;52.486;13.432;2022-08-06T08:36:03;1.35;;;0.90;;
16472;SDS011;8347;52.486;13.432;2022-08-06T08:38:50;3.75;;;0.80;;
16472;SDS011;8347;52.486;13.432;2022-08-06T08:42:02;2.03;;;1.38;;
16472;SDS011;8347;52.486;13.432;2022-08-06T08:44:52;0.85;;;0.65;;
16472;SDS011;8347;52.486;13.432;2022-08-06T08:47:44;3.53;;;0.80;;
16472;SDS011;8347;52.486;13.432;2022-08-06T08:50:31;1.38;;;0.57;;
16472;SDS011;8347;52.486;13.432;2022-08-06T08:53:25;1.13;;;0.90;;
16472;SDS011;8347;52.486;13.432;2022-08-06T08:56:13;1.50;;;0.88;;
16472;SDS011;8347;52.486;13.432;2022-08-06T08:59:03;1.83;;;0.70;;
16472;SDS011;8347;52.486;13.432;2022-08-06T09:01:50;3.42;;;0.60;;
16472;SDS011;8347;52.486;13.432;2022-08-06T09:04:37;2.00;;;0.50;;
16472;SDS011;8347;52.486;13.432;2022-08-06T09:07:23;1.67;;;0.75;;
16472;SDS011;8347;52.486;13.432;2022-08-06T09:10:12;1.05;;;0.70;;
16472;SDS011;8347;52.486;13.432;2022-08-06T09:12:58;3.92;;;0.88;;
16472;SDS011;8347;52.486;13.432;2022-08-06T09:15:44;2.47;;;0.77;;
16472;SDS011;8347;52.486;13.432;2022-08-06T09:18:31;2.35;;;0.98;;
16472;SDS011;8347;52.486;13.432;2022-08-06T09:21:19;2.63;;;1.20;;
16472;SDS011;8347;52.486;13.432;2022-08-06T09:24:05;2.60;;;1.10;;
16472;SDS011;8347;52.486;13.432;2022-08-06T09:32:44;1.10;;;1.00;;
16472;SDS011;8347;52.486;13.432;2022-08-06T09:35:31;3.45;;;0.70;;
16472;SDS011;8347;52.486;13.432;2022-08-06T09:38:17;2.28;;;0.63;;
16472;SDS011;8347;52.486;13.432;2022-08-06T09:41:08;0.55;;;0.52;;
16472;SDS011;8347;52.486;13.432;2022-08-06T09:43:56;1.25;;;0.80;;
16472;SDS011;8347;52.486;13.432;2022-08-06T09:46:44;1.48;;;0.98;;
16472;SDS011;8347;52.486;13.432;2022-08-06T09:49:42;1.10;;;0.70;;
16472;SDS011;8347;52.486;13.432;2022-08-06T09:52:30;0.70;;;0.70;;
16472;SDS011;8347;52.486;13.432;2022-08-06T09:55:29;3.40;;;0.63;;
16472;SDS011;8347;52.486;13.432;2022-08-06T09:58:26;1.30;;;0.68;;
16472;SDS011;8347;52.486;13.432;2022-08-06T10:01:14;1.45;;;0.73;;
16472;SDS011;8347;52.486;13.432;2022-08-06T10:04:01;4.15;;;0.77;;
16472;SDS011;8347;52.486;13.432;2022-08-06T10:06:51;3.20;;;0.90;;
16472;SDS011;8347;52.486;13.432;2022-08-06T10:09:52;2.22;;;0.70;;
16472;SDS011;8347;52.486;13.432;2022-08-06T10:12:39;2.47;;;0.80;;
16472;SDS011;8347;52.486;13.432;2022-08-06T10:15:27;1.85;;;0.77;;
16472;SDS011;8347;52.486;13.432;2022-08-06T10:21:38;0.63;;;0.50;;
16472;SDS011;8347;52.486;13.432;2022-08-06T10:24:25;5.28;;;1.05;;
16472;SDS011;8347;52.486;13.432;2022-08-06T10:27:13;2.70;;;1.27;;
16472;SDS011;8347;52.486;13.432;2022-08-06T10:30:04;1.55;;;0.88;;
16472;SDS011;8347;52.486;13.432;2022-08-06T10:32:52;3.13;;;0.60;;
16472;SDS011;8347;52.486;13.432;2022-08-06T10:35:39;2.20;;;0.70;;
16472;SDS011;8347;52.486;13.432;2022-08-06T10:38:28;2.17;;;1.10;;
16472;SDS011;8347;52.486;13.432;2022-08-06T10:41:17;1.88;;;0.60;;
16472;SDS011;8347;52.486;13.432;2022-08-06T10:44:04;1.05;;;0.70;;
16472;SDS011;8347;52.486;13.432;2022-08-06T10:46:51;22.25;;;2.95;;
16472;SDS011;8347;52.486;13.432;2022-08-06T10:49:37;1.77;;;0.68;;
16472;SDS011;8347;52.486;13.432;2022-08-06T10:52:24;2.58;;;0.93;;
16472;SDS011;8347;52.486;13.432;2022-08-06T10:55:11;2.80;;;0.70;;
16472;SDS011;8347;52.486;13.432;2022-08-06T10:57:58;1.02;;;0.82;;
16472;SDS011;8347;52.486;13.432;2022-08-06T11:00:45;1.20;;;0.80;;
16472;SDS011;8347;52.486;13.432;2022-08-06T11:03:38;1.90;;;0.70;;
16472;SDS011;8347;52.486;13.432;2022-08-06T11:12:31;1.73;;;0.90;;
16472;SDS011;8347;52.486;13.432;2022-08-06T11:15:21;4.15;;;1.08;;
16472;SDS011;8347;52.486;13.432;2022-08-06T11:18:08;1.95;;;1.00;;
16472;SDS011;8347;52.486;13.432;2022-08-06T11:20:55;1.65;;;0.70;;
16472;SDS011;8347;52.486;13.432;2022-08-06T11:23:45;2.28;;;1.10;;
16472;SDS011;8347;52.486;13.432;2022-08-06T11:26:33;3.60;;;0.85;;
16472;SDS011;8347;52.486;13.432;2022-08-06T11:29:20;2.08;;;0.65;;
16472;SDS011;8347;52.486;13.432;2022-08-06T11:32:07;0.95;;;0.68;;
16472;SDS011;8347;52.486;13.432;2022-08-06T11:39:00;1.60;;;0.90;;
16472;SDS011;8347;52.486;13.432;2022-08-06T11:41:29;1.30;;;0.52;;
16472;SDS011;8347;52.486;13.432;2022-08-06T11:44:16;2.35;;;0.65;;
16472;SDS011;8347;52.486;13.432;2022-08-06T11:47:05;1.70;;;0.73;;
16472;SDS011;8347;52.486;13.432;2022-08-06T11:49:54;3.00;;;1.63;;
16472;SDS011;8347;52.486;13.432;2022-08-06T11:52:41;2.03;;;0.60;;
16472;SDS011;8347;52.486;13.432;2022-08-06T11:55:28;1.27;;;0.60;;
16472;SDS011;8347;52.486;13.432;2022-08-06T12:01:06;2.03;;;1.02;;
16472;SDS011;8347;52.486;13.432;2022-08-06T12:03:52;1.30;;;0.55;;
16472;SDS011;8347;52.486;13.432;2022-08-06T12:06:39;1.17;;;0.50;;
16472;SDS011;8347;52.486;13.432;2022-08-06T12:09:32;1.58;;;0.60;;
16472;SDS011;8347;52.486;13.432;2022-08-06T12:17:58;3.88;;;1.98;;
16472;SDS011;8347;52.486;13.432;2022-08-06T12:20:46;3.53;;;1.40;;
16472;SDS011;8347;52.486;13.432;2022-08-06T12:23:34;1.65;;;0.70;;
16472;SDS011;8347;52.486;13.432;2022-08-06T12:26:21;0.80;;;0.70;;
16472;SDS011;8347;52.486;13.432;2022-08-06T12:29:08;0.85;;;0.50;;
16472;SDS011;8347;52.486;13.432;2022-08-06T12:31:55;2.13;;;1.02;;
16472;SDS011;8347;52.486;13.432;2022-08-06T12:34:41;2.25;;;0.52;;
16472;SDS011;8347;52.486;13.432;2022-08-06T12:37:38;1.80;;;1.05;;
16472;SDS011;8347;52.486;13.432;2022-08-06T12:40:25;3.75;;;1.08;;
16472;SDS011;8347;52.486;13.432;2022-08-06T12:43:15;2.63;;;1.58;;
16472;SDS011;8347;52.486;13.432;2022-08-06T12:46:04;1.25;;;1.08;;
16472;SDS011;8347;52.486;13.432;2022-08-06T12:48:51;2.67;;;1.83;;
16472;SDS011;8347;52.486;13.432;2022-08-06T12:51:38;5.10;;;3.42;;
16472;SDS011;8347;52.486;13.432;2022-08-06T12:54:27;5.28;;;3.53;;
16472;SDS011;8347;52.486;13.432;2022-08-06T12:57:24;4.85;;;3.42;;
16472;SDS011;8347;52.486;13.432;2022-08-06T13:00:12;1.90;;;0.85;;
16472;SDS011;8347;52.486;13.432;2022-08-06T13:02:59;1.77;;;1.17;;
16472;SDS011;8347;52.486;13.432;2022-08-06T13:05:46;2.88;;;1.80;;
16472;SDS011;8347;52.486;13.432;2022-08-06T13:08:32;6.70;;;4.20;;
16472;SDS011;8347;52.486;13.432;2022-08-06T13:11:19;1.02;;;0.80;;
16472;SDS011;8347;52.486;13.432;2022-08-06T13:14:07;2.17;;;0.60;;
16472;SDS011;8347;52.486;13.432;2022-08-06T13:16:54;4.43;;;1.33;;
16472;SDS011;8347;52.486;13.432;2022-08-06T13:19:54;1.90;;;0.88;;
16472;SDS011;8347;52.486;13.432;2022-08-06T13:22:49;2.50;;;0.50;;
16472;SDS011;8347;52.486;13.432;2022-08-06T13:25:46;1.02;;;0.52;;
16472;SDS011;8347;52.486;13.432;2022-08-06T13:28:33;1.73;;;0.50;;
16472;SDS011;8347;52.486;13.432;2022-08-06T13:31:19;0.47;;;0.47;;
16472;SDS011;8347;52.486;13.432;2022-08-06T13:34:07;0.82;;;0.60;;
16472;SDS011;8347;52.486;13.432;2022-08-06T13:36:56;1.33;;;0.70;;
16472;SDS011;8347;52.486;13.432;2022-08-06T13:39:52;1.33;;;0.80;;
16472;SDS011;8347;52.486;13.432;2022-08-06T13:42:51;0.20;;;0.20;;
16472;SDS011;8347;52.486;13.432;2022-08-06T13:45:38;0.95;;;0.50;;
16472;SDS011;8347;52.486;13.432;2022-08-06T13:48:25;0.70;;;0.52;;
16472;SDS011;8347;52.486;13.432;2022-08-06T13:51:12;1.33;;;0.60;;
16472;SDS011;8347;52.486;13.432;2022-08-06T13:53:59;2.08;;;1.33;;
16472;SDS011;8347;52.486;13.432;2022-08-06T13:56:46;2.42;;;1.50;;
16472;SDS011;8347;52.486;13.432;2022-08-06T13:59:33;1.30;;;0.63;;
16472;SDS011;8347;52.486;13.432;2022-08-06T14:02:22;3.88;;;1.52;;
16472;SDS011;8347;52.486;13.432;2022-08-06T14:05:09;3.10;;;1.00;;
16472;SDS011;8347;52.486;13.432;2022-08-06T14:07:56;5.35;;;2.95;;
16472;SDS011;8347;52.486;13.432;2022-08-06T14:10:42;1.85;;;0.68;;
16472;SDS011;8347;52.486;13.432;2022-08-06T14:13:29;2.28;;;0.95;;
16472;SDS011;8347;52.486;13.432;2022-08-06T14:16:17;0.73;;;0.47;;
16472;SDS011;8347;52.486;13.432;2022-08-06T14:19:04;1.80;;;0.70;;
16472;SDS011;8347;52.486;13.432;2022-08-06T14:21:51;1.70;;;0.77;;
16472;SDS011;8347;52.486;13.432;2022-08-06T14:24:37;0.95;;;0.60;;
16472;SDS011;8347;52.486;13.432;2022-08-06T14:27:24;2.10;;;0.68;;
16472;SDS011;8347;52.486;13.432;2022-08-06T14:30:15;1.08;;;0.60;;
16472;SDS011;8347;52.486;13.432;2022-08-06T14:33:02;1.95;;;0.50;;
16472;SDS011;8347;52.486;13.432;2022-08-06T14:35:53;2.30;;;0.68;;
16472;SDS011;8347;52.486;13.432;2022-08-06T14:38:40;1.30;;;0.52;;
16472;SDS011;8347;52.486;13.432;2022-08-06T14:41:26;1.40;;;0.90;;
16472;SDS011;8347;52.486;13.432;2022-08-06T14:44:32;0.80;;;0.68;;
16472;SDS011;8347;52.486;13.432;2022-08-06T14:47:38;3.90;;;0.40;;
16472;SDS011;8347;52.486;13.432;2022-08-06T14:50:24;0.68;;;0.65;;
16472;SDS011;8347;52.486;13.432;2022-08-06T14:53:10;0.85;;;0.40;;
16472;SDS011;8347;52.486;13.432;2022-08-06T14:55:57;0.77;;;0.60;;
16472;SDS011;8347;52.486;13.432;2022-08-06T14:58:43;2.10;;;0.70;;
16472;SDS011;8347;52.486;13.432;2022-08-06T16:55:35;4.93;;;1.80;;
16472;SDS011;8347;52.486;13.432;2022-08-06T16:58:22;4.30;;;1.90;;
16472;SDS011;8347;52.486;13.432;2022-08-06T17:01:09;2.63;;;1.58;;
16472;SDS011;8347;52.486;13.432;2022-08-06T17:03:56;2.80;;;1.40;;
16472;SDS011;8347;52.486;13.432;2022-08-06T17:06:42;1.30;;;0.88;;
16472;SDS011;8347;52.486;13.432;2022-08-06T17:09:29;2.03;;;1.00;;
16472;SDS011;8347;52.486;13.432;2022-08-06T17:12:15;2.17;;;0.82;;
16472;SDS011;8347;52.486;13.432;2022-08-06T17:15:02;6.88;;;2.70;;
16472;SDS011;8347;52.486;13.432;2022-08-06T17:17:50;2.80;;;1.55;;
16472;SDS011;8347;52.486;13.432;2022-08-06T17:20:36;2.63;;;1.67;;
16472;SDS011;8347;52.486;13.432;2022-08-06T17:23:24;1.00;;;0.80;;
16472;SDS011;8347;52.486;13.432;2022-08-06T17:26:11;3.90;;;1.40;;
16472;SDS011;8347;52.486;13.432;2022-08-06T17:28:57;2.10;;;1.10;;
16472;SDS011;8347;52.486;13.432;2022-08-06T17:31:44;1.83;;;0.80;;
16472;SDS011;8347;52.486;13.432;2022-08-06T17:34:31;2.00;;;1.13;;
16472;SDS011;8347;52.486;13.432;2022-08-06T17:37:17;1.52;;;0.60;;
16472;SDS011;8347;52.486;13.432;2022-08-06T17:40:04;2.15;;;1.00;;
16472;SDS011;8347;52.486;13.432;2022-08-06T17:42:51;2.33;;;1.23;;
16472;SDS011;8347;52.486;13.432;2022-08-06T17:45:38;2.40;;;0.82;;
16472;SDS011;8347;52.486;13.432;2022-08-06T17:48:24;3.25;;;1.25;;
16472;SDS011;8347;52.486;13.432;2022-08-06T17:51:11;1.45;;;1.00;;
16472;SDS011;8347;52.486;13.432;2022-08-06T17:53:58;2.45;;;1.15;;
16472;SDS011;8347;52.486;13.432;2022-08-06T17:56:44;3.22;;;1.38;;
16472;SDS011;8347;52.486;13.432;2022-08-06T17:59:31;1.85;;;1.15;;
16472;SDS011;8347;52.486;13.432;2022-08-06T18:02:18;3.88;;;2.25;;
16472;SDS011;8347;52.486;13.432;2022-08-06T18:05:06;1.63;;;1.23;;
16472;SDS011;8347;52.486;13.432;2022-08-06T18:07:52;2.03;;;1.20;;
16472;SDS011;8347;52.486;13.432;2022-08-06T18:10:40;3.03;;;1.13;;
16472;SDS011;8347;52.486;13.432;2022-08-06T18:13:26;2.28;;;1.50;;
16472;SDS011;8347;52.486;13.432;2022-08-06T18:16:13;4.32;;;1.73;;
16472;SDS011;8347;52.486;13.432;2022-08-06T18:18:59;2.92;;;1.90;;
16472;SDS011;8347;52.486;13.432;2022-08-06T18:21:46;3.75;;;1.58;;
16472;SDS011;8347;52.486;13.432;2022-08-06T18:24:33;2.63;;;1.15;;
16472;SDS011;8347;52.486;13.432;2022-08-06T18:27:19;1.45;;;1.25;;
16472;SDS011;8347;52.486;13.432;2022-08-06T18:30:07;1.58;;;0.77;;
16472;SDS011;8347;52.486;13.432;2022-08-06T18:32:56;2.28;;;1.35;;
16472;SDS011;8347;52.486;13.432;2022-08-06T18:35:43;1.98;;;1.38;;
16472;SDS011;8347;52.486;13.432;2022-08-06T18:38:29;4.22;;;1.13;;
16472;SDS011;8347;52.486;13.432;2022-08-06T18:41:16;2.50;;;1.65;;
16472;SDS011;8347;52.486;13.432;2022-08-06T18:44:03;2.05;;;1.85;;
16472;SDS011;8347;52.486;13.432;2022-08-06T18:46:50;2.35;;;1.10;;
16472;SDS011;8347;52.486;13.432;2022-08-06T18:49:37;1.77;;;1.20;;
16472;SDS011;8347;52.486;13.432;2022-08-06T18:52:24;2.03;;;1.58;;
16472;SDS011;8347;52.486;13.432;2022-08-06T18:55:11;1.27;;;0.95;;
16472;SDS011;8347;52.486;13.432;2022-08-06T18:57:58;2.17;;;1.05;;
16472;SDS011;8347;52.486;13.432;2022-08-06T19:00:45;2.55;;;0.93;;
16472;SDS011;8347;52.486;13.432;2022-08-06T19:03:31;1.60;;;1.00;;
16472;SDS011;8347;52.486;13.432;2022-08-06T19:06:18;1.17;;;0.90;;
16472;SDS011;8347;52.486;13.432;2022-08-06T19:09:04;1.25;;;0.80;;
16472;SDS011;8347;52.486;13.432;2022-08-06T19:11:51;1.48;;;0.68;;
16472;SDS011;8347;52.486;13.432;2022-08-06T19:14:38;1.75;;;0.70;;
16472;SDS011;8347;52.486;13.432;2022-08-06T19:17:27;1.55;;;1.00;;
16472;SDS011;8347;52.486;13.432;2022-08-06T19:20:14;1.83;;;1.63;;
16472;SDS011;8347;52.486;13.432;2022-08-06T19:23:02;5.68;;;1.55;;
16472;SDS011;8347;52.486;13.432;2022-08-06T19:25:48;1.55;;;1.15;;
16472;SDS011;8347;52.486;13.432;2022-08-06T19:28:35;2.58;;;1.50;;
16472;SDS011;8347;52.486;13.432;2022-08-06T19:31:22;3.45;;;1.95;;
16472;SDS011;8347;52.486;13.432;2022-08-06T19:34:09;1.63;;;1.15;;
16472;SDS011;8347;52.486;13.432;2022-08-06T19:36:57;4.88;;;1.55;;
16472;SDS011;8347;52.486;13.432;2022-08-06T19:39:44;3.17;;;1.65;;
16472;SDS011;8347;52.486;13.432;2022-08-06T19:42:31;1.45;;;1.08;;
16472;SDS011;8347;52.486;13.432;2022-08-06T19:45:17;1.83;;;1.40;;
16472;SDS011;8347;52.486;13.432;2022-08-06T19:48:05;2.97;;;1.95;;
16472;SDS011;8347;52.486;13.432;2022-08-06T19:50:53;2.38;;;1.17;;
16472;SDS011;8347;52.486;13.432;2022-08-06T19:53:39;3.70;;;1.48;;
16472;SDS011;8347;52.486;13.432;2022-08-06T19:56:28;1.90;;;1.40;;
16472;SDS011;8347;52.486;13.432;2022-08-06T19:59:15;2.80;;;1.88;;
16472;SDS011;8347;52.486;13.432;2022-08-06T20:02:02;2.85;;;1.65;;
16472;SDS011;8347;52.486;13.432;2022-08-06T20:04:48;3.33;;;1.52;;
16472;SDS011;8347;52.486;13.432;2022-08-06T20:07:35;2.70;;;1.85;;
16472;SDS011;8347;52.486;13.432;2022-08-06T20:10:22;3.30;;;1.80;;
16472;SDS011;8347;52.486;13.432;2022-08-06T20:13:08;2.38;;;2.00;;
16472;SDS011;8347;52.486;13.432;2022-08-06T20:15:55;3.35;;;1.90;;
16472;SDS011;8347;52.486;13.432;2022-08-06T20:18:43;3.53;;;1.92;;
16472;SDS011;8347;52.486;13.432;2022-08-06T20:21:29;3.92;;;2.25;;
16472;SDS011;8347;52.486;13.432;2022-08-06T20:24:16;3.05;;;2.25;;
16472;SDS011;8347;52.486;13.432;2022-08-06T20:27:02;4.72;;;2.30;;
16472;SDS011;8347;52.486;13.432;2022-08-06T20:29:49;4.55;;;1.80;;
16472;SDS011;8347;52.486;13.432;2022-08-06T20:32:36;2.38;;;2.17;;
16472;SDS011;8347;52.486;13.432;2022-08-06T20:35:23;5.20;;;2.00;;
16472;SDS011;8347;52.486;13.432;2022-08-06T20:38:09;3.25;;;1.60;;
16472;SDS011;8347;52.486;13.432;2022-08-06T20:40:56;3.47;;;1.80;;
16472;SDS011;8347;52.486;13.432;2022-08-06T20:43:43;3.65;;;1.98;;
16472;SDS011;8347;52.486;13.432;2022-08-06T20:46:30;3.47;;;2.22;;
16472;SDS011;8347;52.486;13.432;2022-08-06T20:49:17;3.83;;;2.38;;
16472;SDS011;8347;52.486;13.432;2022-08-06T20:52:03;5.05;;;2.55;;
16472;SDS011;8347;52.486;13.432;2022-08-06T20:54:50;3.42;;;1.85;;
16472;SDS011;8347;52.486;13.432;2022-08-06T20:57:37;4.22;;;2.08;;
16472;SDS011;8347;52.486;13.432;2022-08-06T21:00:23;4.38;;;1.88;;
16472;SDS011;8347;52.486;13.432;2022-08-06T21:03:11;2.30;;;1.35;;
16472;SDS011;8347;52.486;13.432;2022-08-06T21:05:58;3.35;;;2.45;;
16472;SDS011;8347;52.486;13.432;2022-08-06T21:08:44;3.83;;;1.92;;
16472;SDS011;8347;52.486;13.432;2022-08-06T21:11:31;3.90;;;2.58;;
16472;SDS011;8347;52.486;13.432;2022-08-06T21:14:19;4.78;;;2.30;;
16472;SDS011;8347;52.486;13.432;2022-08-06T21:17:06;3.97;;;2.50;;
16472;SDS011;8347;52.486;13.432;2022-08-06T21:19:52;5.55;;;2.55;;
16472;SDS011;8347;52.486;13.432;2022-08-06T21:22:39;4.57;;;2.70;;
16472;SDS011;8347;52.486;13.432;2022-08-06T21:25:26;8.73;;;4.13;;
16472;SDS011;8347;52.486;13.432;2022-08-06T21:28:12;4.75;;;2.45;;
16472;SDS011;8347;52.486;13.432;2022-08-06T22:00:52;6.38;;;2.65;;
16472;SDS011;8347;52.486;13.432;2022-08-06T22:03:39;4.32;;;3.35;;
16472;SDS011;8347;52.486;13.432;2022-08-06T22:06:26;3.00;;;2.40;;
16472;SDS011;8347;52.486;13.432;2022-08-06T22:09:12;7.32;;;3.08;;
16472;SDS011;8347;52.486;13.432;2022-08-06T22:11:59;5.63;;;3.55;;
16472;SDS011;8347;52.486;13.432;2022-08-06T22:14:45;5.93;;;2.67;;
16472;SDS011;8347;52.486;13.432;2022-08-06T22:17:31;5.47;;;2.22;;
16472;SDS011;8347;52.486;13.432;2022-08-06T22:20:18;2.90;;;2.38;;
16472;SDS011;8347;52.486;13.432;2022-08-06T22:23:05;3.85;;;2.58;;
16472;SDS011;8347;52.486;13.432;2022-08-06T22:25:51;4.38;;;2.30;;
16472;SDS011;8347;52.486;13.432;2022-08-06T22:28:37;5.38;;;2.45;;
16472;SDS011;8347;52.486;13.432;2022-08-06T22:31:24;5.45;;;2.45;;
16472;SDS011;8347;52.486;13.432;2022-08-06T22:34:11;2.97;;;1.90;;
16472;SDS011;8347;52.486;13.432;2022-08-06T22:36:57;2.45;;;1.80;;
16472;SDS011;8347;52.486;13.432;2022-08-06T22:39:43;5.93;;;3.92;;
16472;SDS011;8347;52.486;13.432;2022-08-06T22:42:30;5.32;;;2.03;;
16472;SDS011;8347;52.486;13.432;2022-08-06T22:45:17;3.95;;;2.15;;
16472;SDS011;8347;52.486;13.432;2022-08-06T22:48:04;5.65;;;1.95;;
16472;SDS011;8347;52.486;13.432;2022-08-06T22:50:51;3.05;;;1.88;;
16472;SDS011;8347;52.486;13.432;2022-08-06T22:53:37;4.05;;;1.88;;
16472;SDS011;8347;52.486;13.432;2022-08-06T22:56:24;3.05;;;2.10;;
16472;SDS011;8347;52.486;13.432;2022-08-06T22:59:10;3.50;;;2.65;;
16472;SDS011;8347;52.486;13.432;2022-08-06T23:01:58;4.97;;;2.55;;
16472;SDS011;8347;52.486;13.432;2022-08-06T23:04:45;5.57;;;2.58;;
16472;SDS011;8347;52.486;13.432;2022-08-06T23:07:31;5.97;;;2.40;;
16472;SDS011;8347;52.486;13.432;2022-08-06T23:10:18;5.07;;;3.47;;
16472;SDS011;8347;52.486;13.432;2022-08-06T23:13:05;6.28;;;2.90;;
16472;SDS011;8347;52.486;13.432;2022-08-06T23:15:55;4.75;;;2.55;;
16472;SDS011;8347;52.486;13.432;2022-08-06T23:18:41;4.40;;;2.75;;
16472;SDS011;8347;52.486;13.432;2022-08-06T23:21:27;6.25;;;3.05;;
16472;SDS011;8347;52.486;13.432;2022-08-06T23:24:14;3.90;;;2.40;;
16472;SDS011;8347;52.486;13.432;2022-08-06T23:27:01;3.25;;;2.20;;
16472;SDS011;8347;52.486;13.432;2022-08-06T23:29:48;5.25;;;2.10;;
16472;SDS011;8347;52.486;13.432;2022-08-06T23:32:35;4.88;;;2.05;;
16472;SDS011;8347;52.486;13.432;2022-08-06T23:35:21;2.53;;;1.83;;
16472;SDS011;8347;52.486;13.432;2022-08-06T23:38:08;3.15;;;1.95;;
16472;SDS011;8347;52.486;13.432;2022-08-06T23:40:54;4.07;;;2.00;;
16472;SDS011;8347;52.486;13.432;2022-08-06T23:43:41;3.53;;;2.30;;
16472;SDS011;8347;52.486;13.432;2022-08-06T23:46:28;3.10;;;2.00;;
16472;SDS011;8347;52.486;13.432;2022-08-06T23:49:14;3.88;;;1.95;;
16472;SDS011;8347;52.486;13.432;2022-08-06T23:52:03;3.63;;;1.80;;
16472;SDS011;8347;52.486;13.432;2022-08-06T23:54:49;3.88;;;2.45;;
16472;SDS011;8347;52.486;13.432;2022-08-06T23:57:36;6.30;;;2.60;;
